sensor_id;sensor_type;location;lat;lon;timestamp;P1;durP1;ratioP1;P2;durP2;ratioP2
10596;SDS011;5346;48.766;8.674;2023-04-24T00:00:41;5.77;;;1.13;;
10596;SDS011;5346;48.766;8.674;2023-04-24T00:03:15;3.00;;;1.10;;
10596;SDS011;5346;48.766;8.674;2023-04-24T00:05:42;4.10;;;1.07;;
10596;SDS011;5346;48.766;8.674;2023-04-24T00:08:16;3.37;;;1.30;;
10596;SDS011;5346;48.766;8.674;2023-04-24T00:10:50;2.47;;;0.80;;
10596;SDS011;5346;48.766;8.674;2023-04-24T00:13:25;2.13;;;1.03;;
10596;SDS011;5346;48.766;8.674;2023-04-24T00:15:55;1.40;;;1.10;;
10596;SDS011;5346;48.766;8.674;2023-04-24T00:18:29;3.93;;;1.30;;
10596;SDS011;5346;48.766;8.674;2023-04-24T00:20:56;1.67;;;1.53;;
10596;SDS011;5346;48.766;8.674;2023-04-24T00:23:23;3.13;;;1.30;;
10596;SDS011;5346;48.766;8.674;2023-04-24T00:25:57;2.30;;;1.20;;
10596;SDS011;5346;48.766;8.674;2023-04-24T00:28:24;3.67;;;1.20;;
10596;SDS011;5346;48.766;8.674;2023-04-24T00:30:58;1.67;;;1.10;;
10596;SDS011;5346;48.766;8.674;2023-04-24T00:33:25;1.73;;;1.17;;
10596;SDS011;5346;48.766;8.674;2023-04-24T00:35:52;1.50;;;1.30;;
10596;SDS011;5346;48.766;8.674;2023-04-24T00:38:26;1.93;;;0.97;;
10596;SDS011;5346;48.766;8.674;2023-04-24T00:41:00;1.63;;;1.20;;
10596;SDS011;5346;48.766;8.674;2023-04-24T00:43:34;3.40;;;1.17;;
10596;SDS011;5346;48.766;8.674;2023-04-24T00:46:04;0.93;;;0.90;;
10596;SDS011;5346;48.766;8.674;2023-04-24T00:48:39;1.07;;;0.97;;
10596;SDS011;5346;48.766;8.674;2023-04-24T00:51:06;1.83;;;1.13;;
10596;SDS011;5346;48.766;8.674;2023-04-24T00:53:41;1.70;;;1.20;;
10596;SDS011;5346;48.766;8.674;2023-04-24T00:56:08;3.43;;;1.23;;
10596;SDS011;5346;48.766;8.674;2023-04-24T00:58:43;3.20;;;1.23;;
10596;SDS011;5346;48.766;8.674;2023-04-24T01:01:11;2.50;;;1.07;;
10596;SDS011;5346;48.766;8.674;2023-04-24T01:03:59;3.13;;;1.10;;
10596;SDS011;5346;48.766;8.674;2023-04-24T01:06:28;2.30;;;1.47;;
10596;SDS011;5346;48.766;8.674;2023-04-24T01:09:04;1.77;;;1.10;;
10596;SDS011;5346;48.766;8.674;2023-04-24T01:11:34;1.97;;;1.00;;
10596;SDS011;5346;48.766;8.674;2023-04-24T01:14:08;2.27;;;1.30;;
10596;SDS011;5346;48.766;8.674;2023-04-24T01:16:36;3.07;;;1.30;;
10596;SDS011;5346;48.766;8.674;2023-04-24T01:19:11;1.63;;;1.03;;
10596;SDS011;5346;48.766;8.674;2023-04-24T01:21:41;1.10;;;1.00;;
10596;SDS011;5346;48.766;8.674;2023-04-24T01:24:16;5.67;;;1.30;;
10596;SDS011;5346;48.766;8.674;2023-04-24T01:26:52;1.90;;;0.83;;
10596;SDS011;5346;48.766;8.674;2023-04-24T01:29:26;3.47;;;1.57;;
10596;SDS011;5346;48.766;8.674;2023-04-24T01:32:00;1.50;;;1.20;;
10596;SDS011;5346;48.766;8.674;2023-04-24T01:34:27;1.40;;;1.10;;
10596;SDS011;5346;48.766;8.674;2023-04-24T01:37:03;1.47;;;1.03;;
10596;SDS011;5346;48.766;8.674;2023-04-24T01:39:38;4.47;;;1.07;;
10596;SDS011;5346;48.766;8.674;2023-04-24T01:42:05;1.20;;;1.10;;
10596;SDS011;5346;48.766;8.674;2023-04-24T01:44:40;3.43;;;1.30;;
10596;SDS011;5346;48.766;8.674;2023-04-24T01:47:08;2.70;;;1.07;;
10596;SDS011;5346;48.766;8.674;2023-04-24T01:49:42;3.03;;;1.20;;
10596;SDS011;5346;48.766;8.674;2023-04-24T01:52:10;2.23;;;1.10;;
10596;SDS011;5346;48.766;8.674;2023-04-24T01:54:43;4.07;;;1.33;;
10596;SDS011;5346;48.766;8.674;2023-04-24T01:57:10;3.37;;;1.20;;
10596;SDS011;5346;48.766;8.674;2023-04-24T01:59:44;2.07;;;1.30;;
10596;SDS011;5346;48.766;8.674;2023-04-24T02:02:18;2.43;;;1.10;;
10596;SDS011;5346;48.766;8.674;2023-04-24T02:05:00;1.93;;;1.20;;
10596;SDS011;5346;48.766;8.674;2023-04-24T02:07:34;5.60;;;1.40;;
10596;SDS011;5346;48.766;8.674;2023-04-24T02:10:08;2.83;;;1.07;;
10596;SDS011;5346;48.766;8.674;2023-04-24T02:12:43;3.90;;;1.03;;
10596;SDS011;5346;48.766;8.674;2023-04-24T02:15:10;3.77;;;1.40;;
10596;SDS011;5346;48.766;8.674;2023-04-24T02:17:44;1.43;;;1.30;;
10596;SDS011;5346;48.766;8.674;2023-04-24T02:20:18;1.50;;;1.23;;
10596;SDS011;5346;48.766;8.674;2023-04-24T02:22:52;3.17;;;1.33;;
10596;SDS011;5346;48.766;8.674;2023-04-24T02:25:19;3.87;;;1.47;;
10596;SDS011;5346;48.766;8.674;2023-04-24T02:27:53;3.03;;;1.53;;
10596;SDS011;5346;48.766;8.674;2023-04-24T02:30:27;2.63;;;1.57;;
10596;SDS011;5346;48.766;8.674;2023-04-24T02:33:01;1.50;;;1.40;;
10596;SDS011;5346;48.766;8.674;2023-04-24T02:35:35;1.93;;;1.47;;
10596;SDS011;5346;48.766;8.674;2023-04-24T02:38:08;1.63;;;1.37;;
10596;SDS011;5346;48.766;8.674;2023-04-24T02:40:35;3.33;;;1.60;;
10596;SDS011;5346;48.766;8.674;2023-04-24T02:43:09;6.57;;;1.40;;
10596;SDS011;5346;48.766;8.674;2023-04-24T02:45:36;2.87;;;1.40;;
10596;SDS011;5346;48.766;8.674;2023-04-24T02:48:11;2.27;;;1.20;;
10596;SDS011;5346;48.766;8.674;2023-04-24T02:50:38;3.77;;;1.60;;
10596;SDS011;5346;48.766;8.674;2023-04-24T02:53:11;4.73;;;1.70;;
10596;SDS011;5346;48.766;8.674;2023-04-24T02:55:38;2.93;;;1.30;;
10596;SDS011;5346;48.766;8.674;2023-04-24T02:58:12;2.47;;;1.50;;
10596;SDS011;5346;48.766;8.674;2023-04-24T03:00:39;2.93;;;1.60;;
10596;SDS011;5346;48.766;8.674;2023-04-24T03:03:13;4.07;;;1.33;;
10596;SDS011;5346;48.766;8.674;2023-04-24T03:05:54;3.97;;;1.50;;
10596;SDS011;5346;48.766;8.674;2023-04-24T03:08:21;2.53;;;1.57;;
10596;SDS011;5346;48.766;8.674;2023-04-24T03:10:57;3.43;;;1.80;;
10596;SDS011;5346;48.766;8.674;2023-04-24T03:13:31;7.47;;;1.53;;
10596;SDS011;5346;48.766;8.674;2023-04-24T03:15:58;1.80;;;1.40;;
10596;SDS011;5346;48.766;8.674;2023-04-24T03:18:32;1.93;;;1.33;;
10596;SDS011;5346;48.766;8.674;2023-04-24T03:21:06;2.93;;;1.40;;
10596;SDS011;5346;48.766;8.674;2023-04-24T03:23:40;3.27;;;1.80;;
10596;SDS011;5346;48.766;8.674;2023-04-24T03:26:14;3.30;;;1.60;;
10596;SDS011;5346;48.766;8.674;2023-04-24T03:28:48;2.83;;;1.53;;
10596;SDS011;5346;48.766;8.674;2023-04-24T03:31:22;1.70;;;1.57;;
10596;SDS011;5346;48.766;8.674;2023-04-24T03:33:56;2.63;;;1.63;;
10596;SDS011;5346;48.766;8.674;2023-04-24T03:36:30;3.20;;;1.43;;
10596;SDS011;5346;48.766;8.674;2023-04-24T03:38:58;3.10;;;1.70;;
10596;SDS011;5346;48.766;8.674;2023-04-24T03:41:32;1.57;;;1.30;;
10596;SDS011;5346;48.766;8.674;2023-04-24T03:44:07;2.10;;;1.70;;
10596;SDS011;5346;48.766;8.674;2023-04-24T03:46:34;2.53;;;1.97;;
10596;SDS011;5346;48.766;8.674;2023-04-24T03:49:08;4.03;;;1.87;;
10596;SDS011;5346;48.766;8.674;2023-04-24T03:51:35;3.20;;;2.13;;
10596;SDS011;5346;48.766;8.674;2023-04-24T03:54:09;8.67;;;2.53;;
10596;SDS011;5346;48.766;8.674;2023-04-24T03:56:44;2.70;;;2.30;;
10596;SDS011;5346;48.766;8.674;2023-04-24T03:59:18;3.17;;;2.10;;
10596;SDS011;5346;48.766;8.674;2023-04-24T04:01:58;2.03;;;1.83;;
10596;SDS011;5346;48.766;8.674;2023-04-24T04:04:39;3.70;;;2.23;;
10596;SDS011;5346;48.766;8.674;2023-04-24T04:07:13;3.17;;;2.30;;
10596;SDS011;5346;48.766;8.674;2023-04-24T04:09:41;4.83;;;2.03;;
10596;SDS011;5346;48.766;8.674;2023-04-24T04:12:08;3.70;;;2.10;;
10596;SDS011;5346;48.766;8.674;2023-04-24T04:14:42;3.47;;;2.17;;
10596;SDS011;5346;48.766;8.674;2023-04-24T04:17:16;2.40;;;2.20;;
10596;SDS011;5346;48.766;8.674;2023-04-24T04:19:50;2.13;;;1.93;;
10596;SDS011;5346;48.766;8.674;2023-04-24T04:22:17;2.40;;;1.80;;
10596;SDS011;5346;48.766;8.674;2023-04-24T04:24:51;2.20;;;1.80;;
10596;SDS011;5346;48.766;8.674;2023-04-24T04:27:18;2.30;;;2.00;;
10596;SDS011;5346;48.766;8.674;2023-04-24T04:29:54;2.60;;;2.07;;
10596;SDS011;5346;48.766;8.674;2023-04-24T04:32:29;2.53;;;2.33;;
10596;SDS011;5346;48.766;8.674;2023-04-24T04:35:00;3.27;;;2.40;;
10596;SDS011;5346;48.766;8.674;2023-04-24T04:37:36;2.87;;;2.40;;
10596;SDS011;5346;48.766;8.674;2023-04-24T04:40:10;3.73;;;3.40;;
10596;SDS011;5346;48.766;8.674;2023-04-24T04:42:47;4.13;;;3.13;;
10596;SDS011;5346;48.766;8.674;2023-04-24T04:45:14;3.57;;;2.90;;
10596;SDS011;5346;48.766;8.674;2023-04-24T04:47:49;5.23;;;3.63;;
10596;SDS011;5346;48.766;8.674;2023-04-24T04:50:16;5.07;;;3.67;;
10596;SDS011;5346;48.766;8.674;2023-04-24T04:52:52;6.73;;;4.10;;
10596;SDS011;5346;48.766;8.674;2023-04-24T04:55:20;8.93;;;3.50;;
10596;SDS011;5346;48.766;8.674;2023-04-24T04:57:55;6.67;;;4.33;;
10596;SDS011;5346;48.766;8.674;2023-04-24T05:00:22;6.27;;;4.43;;
10596;SDS011;5346;48.766;8.674;2023-04-24T05:03:07;7.83;;;4.77;;
10596;SDS011;5346;48.766;8.674;2023-04-24T05:05:46;6.90;;;4.37;;
10596;SDS011;5346;48.766;8.674;2023-04-24T05:08:14;7.10;;;4.93;;
10596;SDS011;5346;48.766;8.674;2023-04-24T05:10:53;6.67;;;4.37;;
10596;SDS011;5346;48.766;8.674;2023-04-24T05:13:28;8.53;;;5.30;;
10596;SDS011;5346;48.766;8.674;2023-04-24T05:16:06;4.90;;;4.27;;
10596;SDS011;5346;48.766;8.674;2023-04-24T05:18:35;6.27;;;4.73;;
10596;SDS011;5346;48.766;8.674;2023-04-24T05:21:08;6.83;;;4.50;;
10596;SDS011;5346;48.766;8.674;2023-04-24T05:23:41;6.80;;;4.73;;
10596;SDS011;5346;48.766;8.674;2023-04-24T05:26:17;6.23;;;3.87;;
10596;SDS011;5346;48.766;8.674;2023-04-24T05:28:44;5.20;;;3.77;;
10596;SDS011;5346;48.766;8.674;2023-04-24T05:31:19;4.40;;;3.70;;
10596;SDS011;5346;48.766;8.674;2023-04-24T05:33:46;5.00;;;3.80;;
10596;SDS011;5346;48.766;8.674;2023-04-24T05:36:20;4.13;;;3.67;;
10596;SDS011;5346;48.766;8.674;2023-04-24T05:38:47;5.43;;;3.33;;
10596;SDS011;5346;48.766;8.674;2023-04-24T05:41:21;6.07;;;3.80;;
10596;SDS011;5346;48.766;8.674;2023-04-24T05:43:48;5.03;;;3.57;;
10596;SDS011;5346;48.766;8.674;2023-04-24T05:46:17;9.43;;;3.63;;
10596;SDS011;5346;48.766;8.674;2023-04-24T05:48:51;3.87;;;3.47;;
10596;SDS011;5346;48.766;8.674;2023-04-24T05:51:39;4.13;;;3.10;;
10596;SDS011;5346;48.766;8.674;2023-04-24T05:54:13;4.37;;;3.10;;
10596;SDS011;5346;48.766;8.674;2023-04-24T05:56:41;4.47;;;3.40;;
10596;SDS011;5346;48.766;8.674;2023-04-24T05:59:15;6.57;;;3.30;;
10596;SDS011;5346;48.766;8.674;2023-04-24T06:01:43;3.57;;;2.63;;
10596;SDS011;5346;48.766;8.674;2023-04-24T06:04:31;4.60;;;2.70;;
10596;SDS011;5346;48.766;8.674;2023-04-24T06:07:08;3.53;;;2.60;;
10596;SDS011;5346;48.766;8.674;2023-04-24T06:09:43;6.67;;;2.57;;
10596;SDS011;5346;48.766;8.674;2023-04-24T06:12:11;2.27;;;2.00;;
10596;SDS011;5346;48.766;8.674;2023-04-24T06:14:45;2.40;;;2.13;;
10596;SDS011;5346;48.766;8.674;2023-04-24T06:17:19;4.87;;;2.50;;
10596;SDS011;5346;48.766;8.674;2023-04-24T06:19:54;4.78;;;2.58;;
10596;SDS011;5346;48.766;8.674;2023-04-24T06:22:27;2.53;;;2.33;;
10596;SDS011;5346;48.766;8.674;2023-04-24T06:24:54;4.72;;;2.50;;
10596;SDS011;5346;48.766;8.674;2023-04-24T06:27:28;2.93;;;2.53;;
10596;SDS011;5346;48.766;8.674;2023-04-24T06:29:55;3.57;;;2.20;;
10596;SDS011;5346;48.766;8.674;2023-04-24T06:32:30;2.87;;;2.40;;
10596;SDS011;5346;48.766;8.674;2023-04-24T06:34:58;4.23;;;2.47;;
10596;SDS011;5346;48.766;8.674;2023-04-24T06:37:32;2.73;;;2.33;;
10596;SDS011;5346;48.766;8.674;2023-04-24T06:40:13;2.57;;;2.30;;
10596;SDS011;5346;48.766;8.674;2023-04-24T06:42:41;2.77;;;2.37;;
10596;SDS011;5346;48.766;8.674;2023-04-24T06:45:15;3.00;;;2.37;;
10596;SDS011;5346;48.766;8.674;2023-04-24T06:47:49;3.47;;;2.50;;
10596;SDS011;5346;48.766;8.674;2023-04-24T06:50:23;3.60;;;2.30;;
10596;SDS011;5346;48.766;8.674;2023-04-24T06:52:57;2.23;;;1.80;;
10596;SDS011;5346;48.766;8.674;2023-04-24T06:55:31;2.03;;;1.83;;
10596;SDS011;5346;48.766;8.674;2023-04-24T06:57:58;2.30;;;1.80;;
10596;SDS011;5346;48.766;8.674;2023-04-24T07:00:33;3.77;;;1.93;;
10596;SDS011;5346;48.766;8.674;2023-04-24T07:03:15;3.17;;;2.37;;
10596;SDS011;5346;48.766;8.674;2023-04-24T07:05:51;2.77;;;2.20;;
10596;SDS011;5346;48.766;8.674;2023-04-24T07:08:26;3.67;;;2.00;;
10596;SDS011;5346;48.766;8.674;2023-04-24T07:11:00;2.37;;;1.77;;
10596;SDS011;5346;48.766;8.674;2023-04-24T07:13:28;3.80;;;1.80;;
10596;SDS011;5346;48.766;8.674;2023-04-24T07:16:01;2.83;;;1.73;;
10596;SDS011;5346;48.766;8.674;2023-04-24T07:18:29;4.37;;;1.80;;
10596;SDS011;5346;48.766;8.674;2023-04-24T07:21:03;2.70;;;1.93;;
10596;SDS011;5346;48.766;8.674;2023-04-24T07:23:31;3.13;;;1.80;;
10596;SDS011;5346;48.766;8.674;2023-04-24T07:26:06;3.17;;;1.73;;
10596;SDS011;5346;48.766;8.674;2023-04-24T07:28:33;2.13;;;1.73;;
10596;SDS011;5346;48.766;8.674;2023-04-24T07:31:08;2.30;;;1.80;;
10596;SDS011;5346;48.766;8.674;2023-04-24T07:33:35;1.93;;;1.70;;
10596;SDS011;5346;48.766;8.674;2023-04-24T07:36:09;3.77;;;2.00;;
10596;SDS011;5346;48.766;8.674;2023-04-24T07:38:50;3.90;;;1.83;;
10596;SDS011;5346;48.766;8.674;2023-04-24T07:41:24;5.40;;;2.03;;
10596;SDS011;5346;48.766;8.674;2023-04-24T07:43:51;3.63;;;1.90;;
10596;SDS011;5346;48.766;8.674;2023-04-24T07:46:26;2.60;;;1.63;;
10596;SDS011;5346;48.766;8.674;2023-04-24T07:48:56;4.40;;;2.03;;
10596;SDS011;5346;48.766;8.674;2023-04-24T07:51:39;2.30;;;2.00;;
10596;SDS011;5346;48.766;8.674;2023-04-24T07:54:15;4.10;;;2.00;;
10596;SDS011;5346;48.766;8.674;2023-04-24T07:56:49;3.63;;;1.83;;
10596;SDS011;5346;48.766;8.674;2023-04-24T07:59:23;3.50;;;2.07;;
10596;SDS011;5346;48.766;8.674;2023-04-24T08:01:59;2.30;;;1.90;;
10596;SDS011;5346;48.766;8.674;2023-04-24T08:04:33;2.30;;;1.90;;
10596;SDS011;5346;48.766;8.674;2023-04-24T08:07:08;2.43;;;1.90;;
10596;SDS011;5346;48.766;8.674;2023-04-24T08:09:36;2.60;;;2.07;;
10596;SDS011;5346;48.766;8.674;2023-04-24T08:12:10;2.83;;;2.30;;
10596;SDS011;5346;48.766;8.674;2023-04-24T08:14:44;4.53;;;2.50;;
10596;SDS011;5346;48.766;8.674;2023-04-24T08:17:18;3.13;;;2.60;;
10596;SDS011;5346;48.766;8.674;2023-04-24T08:19:52;3.20;;;2.20;;
10596;SDS011;5346;48.766;8.674;2023-04-24T08:22:28;7.27;;;2.90;;
10596;SDS011;5346;48.766;8.674;2023-04-24T08:25:03;4.33;;;2.70;;
10596;SDS011;5346;48.766;8.674;2023-04-24T08:27:32;4.63;;;2.70;;
10596;SDS011;5346;48.766;8.674;2023-04-24T08:30:08;5.53;;;3.23;;
10596;SDS011;5346;48.766;8.674;2023-04-24T08:32:43;4.07;;;3.37;;
10596;SDS011;5346;48.766;8.674;2023-04-24T08:35:17;7.60;;;3.00;;
10596;SDS011;5346;48.766;8.674;2023-04-24T08:37:45;3.97;;;2.70;;
10596;SDS011;5346;48.766;8.674;2023-04-24T08:40:20;6.10;;;2.90;;
10596;SDS011;5346;48.766;8.674;2023-04-24T08:42:57;4.60;;;2.67;;
10596;SDS011;5346;48.766;8.674;2023-04-24T08:45:33;2.47;;;2.27;;
10596;SDS011;5346;48.766;8.674;2023-04-24T08:48:02;5.47;;;2.70;;
10596;SDS011;5346;48.766;8.674;2023-04-24T08:50:36;5.77;;;2.60;;
10596;SDS011;5346;48.766;8.674;2023-04-24T08:53:13;4.10;;;2.50;;
10596;SDS011;5346;48.766;8.674;2023-04-24T08:55:50;4.23;;;3.10;;
10596;SDS011;5346;48.766;8.674;2023-04-24T08:58:21;3.47;;;2.60;;
10596;SDS011;5346;48.766;8.674;2023-04-24T09:00:58;3.10;;;2.80;;
10596;SDS011;5346;48.766;8.674;2023-04-24T09:03:32;4.03;;;2.47;;
10596;SDS011;5346;48.766;8.674;2023-04-24T09:06:08;2.97;;;2.50;;
10596;SDS011;5346;48.766;8.674;2023-04-24T09:08:41;4.70;;;3.00;;
10596;SDS011;5346;48.766;8.674;2023-04-24T09:11:20;4.60;;;2.60;;
10596;SDS011;5346;48.766;8.674;2023-04-24T09:13:47;5.27;;;2.40;;
10596;SDS011;5346;48.766;8.674;2023-04-24T09:16:22;5.10;;;2.50;;
10596;SDS011;5346;48.766;8.674;2023-04-24T09:18:53;3.40;;;2.40;;
10596;SDS011;5346;48.766;8.674;2023-04-24T09:21:31;4.23;;;2.07;;
10596;SDS011;5346;48.766;8.674;2023-04-24T09:24:07;2.33;;;2.07;;
10596;SDS011;5346;48.766;8.674;2023-04-24T09:26:58;4.03;;;2.30;;
10596;SDS011;5346;48.766;8.674;2023-04-24T09:29:27;5.63;;;2.13;;
10596;SDS011;5346;48.766;8.674;2023-04-24T09:32:17;3.60;;;2.03;;
10596;SDS011;5346;48.766;8.674;2023-04-24T09:34:49;3.80;;;2.40;;
10596;SDS011;5346;48.766;8.674;2023-04-24T09:37:27;2.60;;;2.00;;
10596;SDS011;5346;48.766;8.674;2023-04-24T09:42:53;2.13;;;1.93;;
10596;SDS011;5346;48.766;8.674;2023-04-24T09:45:37;2.57;;;2.00;;
10596;SDS011;5346;48.766;8.674;2023-04-24T09:48:14;1.93;;;1.73;;
10596;SDS011;5346;48.766;8.674;2023-04-24T09:50:45;4.13;;;1.80;;
10596;SDS011;5346;48.766;8.674;2023-04-24T09:53:23;2.40;;;1.70;;
10596;SDS011;5346;48.766;8.674;2023-04-24T09:56:02;2.93;;;1.63;;
10596;SDS011;5346;48.766;8.674;2023-04-24T09:58:43;2.97;;;1.77;;
10596;SDS011;5346;48.766;8.674;2023-04-24T10:01:12;2.83;;;1.40;;
10596;SDS011;5346;48.766;8.674;2023-04-24T10:03:47;1.93;;;1.50;;
10596;SDS011;5346;48.766;8.674;2023-04-24T10:06:34;1.67;;;1.57;;
10596;SDS011;5346;48.766;8.674;2023-04-24T10:09:10;3.80;;;1.73;;
10596;SDS011;5346;48.766;8.674;2023-04-24T10:11:46;1.70;;;1.43;;
10596;SDS011;5346;48.766;8.674;2023-04-24T10:14:25;2.90;;;1.73;;
10596;SDS011;5346;48.766;8.674;2023-04-24T10:16:55;2.17;;;1.83;;
10596;SDS011;5346;48.766;8.674;2023-04-24T10:19:33;2.97;;;1.20;;
10596;SDS011;5346;48.766;8.674;2023-04-24T10:22:08;1.40;;;1.30;;
10596;SDS011;5346;48.766;8.674;2023-04-24T10:24:44;1.67;;;1.37;;
10596;SDS011;5346;48.766;8.674;2023-04-24T10:27:22;2.70;;;1.30;;
10596;SDS011;5346;48.766;8.674;2023-04-24T10:29:56;2.30;;;1.20;;
10596;SDS011;5346;48.766;8.674;2023-04-24T10:32:30;1.73;;;1.40;;
10596;SDS011;5346;48.766;8.674;2023-04-24T10:35:08;3.67;;;1.63;;
10596;SDS011;5346;48.766;8.674;2023-04-24T10:37:56;1.73;;;1.63;;
10596;SDS011;5346;48.766;8.674;2023-04-24T10:40:35;3.03;;;1.70;;
10596;SDS011;5346;48.766;8.674;2023-04-24T10:43:04;4.00;;;1.67;;
10596;SDS011;5346;48.766;8.674;2023-04-24T10:46:00;3.70;;;1.50;;
10596;SDS011;5346;48.766;8.674;2023-04-24T10:48:30;5.13;;;1.90;;
10596;SDS011;5346;48.766;8.674;2023-04-24T10:51:05;4.20;;;1.93;;
10596;SDS011;5346;48.766;8.674;2023-04-24T10:53:41;3.70;;;1.60;;
10596;SDS011;5346;48.766;8.674;2023-04-24T10:56:17;3.13;;;1.45;;
10596;SDS011;5346;48.766;8.674;2023-04-24T10:58:45;1.75;;;1.40;;
10596;SDS011;5346;48.766;8.674;2023-04-24T11:03:58;2.90;;;1.43;;
10596;SDS011;5346;48.766;8.674;2023-04-24T11:06:43;2.70;;;2.00;;
10596;SDS011;5346;48.766;8.674;2023-04-24T11:09:11;2.00;;;1.70;;
10596;SDS011;5346;48.766;8.674;2023-04-24T11:11:50;1.83;;;1.57;;
10596;SDS011;5346;48.766;8.674;2023-04-24T11:17:35;2.80;;;1.53;;
10596;SDS011;5346;48.766;8.674;2023-04-24T11:20:07;3.93;;;2.03;;
10596;SDS011;5346;48.766;8.674;2023-04-24T11:22:51;2.05;;;1.90;;
10596;SDS011;5346;48.766;8.674;2023-04-24T11:25:21;2.63;;;1.80;;
10596;SDS011;5346;48.766;8.674;2023-04-24T11:28:05;3.38;;;1.55;;
10596;SDS011;5346;48.766;8.674;2023-04-24T11:30:39;2.58;;;1.83;;
10596;SDS011;5346;48.766;8.674;2023-04-24T11:33:07;3.30;;;1.90;;
10596;SDS011;5346;48.766;8.674;2023-04-24T11:35:42;2.80;;;1.80;;
10596;SDS011;5346;48.766;8.674;2023-04-24T11:38:16;2.60;;;1.65;;
10596;SDS011;5346;48.766;8.674;2023-04-24T11:40:52;2.97;;;1.60;;
10596;SDS011;5346;48.766;8.674;2023-04-24T11:43:28;3.28;;;1.50;;
10596;SDS011;5346;48.766;8.674;2023-04-24T11:46:04;1.75;;;1.60;;
10596;SDS011;5346;48.766;8.674;2023-04-24T11:48:35;2.37;;;1.63;;
10596;SDS011;5346;48.766;8.674;2023-04-24T11:51:13;2.28;;;1.80;;
10596;SDS011;5346;48.766;8.674;2023-04-24T11:53:47;2.90;;;1.77;;
10596;SDS011;5346;48.766;8.674;2023-04-24T11:56:30;6.05;;;1.73;;
10596;SDS011;5346;48.766;8.674;2023-04-24T11:59:05;2.93;;;1.90;;
10596;SDS011;5346;48.766;8.674;2023-04-24T12:01:44;2.67;;;1.80;;
10596;SDS011;5346;48.766;8.674;2023-04-24T12:04:19;2.20;;;1.80;;
10596;SDS011;5346;48.766;8.674;2023-04-24T12:07:01;2.72;;;1.50;;
10596;SDS011;5346;48.766;8.674;2023-04-24T12:12:22;2.95;;;1.70;;
10596;SDS011;5346;48.766;8.674;2023-04-24T12:14:53;2.22;;;1.40;;
10596;SDS011;5346;48.766;8.674;2023-04-24T12:17:31;1.45;;;1.35;;
10596;SDS011;5346;48.766;8.674;2023-04-24T12:20:08;2.95;;;1.52;;
10596;SDS011;5346;48.766;8.674;2023-04-24T12:22:54;2.55;;;1.52;;
10596;SDS011;5346;48.766;8.674;2023-04-24T12:25:25;2.23;;;1.80;;
10596;SDS011;5346;48.766;8.674;2023-04-24T12:30:33;5.17;;;1.90;;
10596;SDS011;5346;48.766;8.674;2023-04-24T12:33:12;2.80;;;1.83;;
10596;SDS011;5346;48.766;8.674;2023-04-24T12:35:47;3.90;;;2.17;;
10596;SDS011;5346;48.766;8.674;2023-04-24T12:38:26;2.77;;;2.47;;
10596;SDS011;5346;48.766;8.674;2023-04-24T12:41:01;3.77;;;2.40;;
10596;SDS011;5346;48.766;8.674;2023-04-24T12:43:50;2.57;;;2.33;;
10596;SDS011;5346;48.766;8.674;2023-04-24T12:46:20;3.20;;;2.27;;
10596;SDS011;5346;48.766;8.674;2023-04-24T12:48:54;3.50;;;2.20;;
10596;SDS011;5346;48.766;8.674;2023-04-24T12:51:22;2.20;;;2.00;;
10596;SDS011;5346;48.766;8.674;2023-04-24T12:53:50;3.57;;;2.10;;
10596;SDS011;5346;48.766;8.674;2023-04-24T12:56:27;3.00;;;1.90;;
10596;SDS011;5346;48.766;8.674;2023-04-24T12:58:55;3.60;;;2.23;;
10596;SDS011;5346;48.766;8.674;2023-04-24T13:01:29;3.03;;;2.03;;
10596;SDS011;5346;48.766;8.674;2023-04-24T13:04:05;2.63;;;2.10;;
10596;SDS011;5346;48.766;8.674;2023-04-24T13:06:46;2.30;;;2.10;;
10596;SDS011;5346;48.766;8.674;2023-04-24T13:09:14;2.10;;;1.90;;
10596;SDS011;5346;48.766;8.674;2023-04-24T13:11:47;2.60;;;1.90;;
10596;SDS011;5346;48.766;8.674;2023-04-24T13:14:15;3.83;;;2.33;;
10596;SDS011;5346;48.766;8.674;2023-04-24T13:16:49;2.13;;;1.90;;
10596;SDS011;5346;48.766;8.674;2023-04-24T13:19:16;2.10;;;1.90;;
10596;SDS011;5346;48.766;8.674;2023-04-24T13:21:56;4.80;;;2.10;;
10596;SDS011;5346;48.766;8.674;2023-04-24T13:24:26;2.00;;;1.80;;
10596;SDS011;5346;48.766;8.674;2023-04-24T13:26:59;2.80;;;2.30;;
10596;SDS011;5346;48.766;8.674;2023-04-24T13:29:35;4.30;;;2.53;;
10596;SDS011;5346;48.766;8.674;2023-04-24T13:32:11;4.20;;;3.20;;
10596;SDS011;5346;48.766;8.674;2023-04-24T13:34:38;5.70;;;2.60;;
10596;SDS011;5346;48.766;8.674;2023-04-24T13:37:12;6.00;;;3.03;;
10596;SDS011;5346;48.766;8.674;2023-04-24T13:39:40;5.03;;;3.00;;
10596;SDS011;5346;48.766;8.674;2023-04-24T13:42:14;5.10;;;2.47;;
10596;SDS011;5346;48.766;8.674;2023-04-24T13:44:44;3.00;;;2.35;;
10596;SDS011;5346;48.766;8.674;2023-04-24T13:47:20;2.60;;;2.17;;
10596;SDS011;5346;48.766;8.674;2023-04-24T13:49:56;2.17;;;1.90;;
10596;SDS011;5346;48.766;8.674;2023-04-24T13:52:33;2.97;;;2.45;;
10596;SDS011;5346;48.766;8.674;2023-04-24T13:55:07;3.58;;;2.40;;
10596;SDS011;5346;48.766;8.674;2023-04-24T13:57:37;2.70;;;2.28;;
10596;SDS011;5346;48.766;8.674;2023-04-24T14:00:11;2.97;;;2.35;;
10596;SDS011;5346;48.766;8.674;2023-04-24T14:02:46;3.42;;;2.40;;
10596;SDS011;5346;48.766;8.674;2023-04-24T14:05:29;3.63;;;2.75;;
10596;SDS011;5346;48.766;8.674;2023-04-24T14:07:56;2.90;;;2.40;;
10596;SDS011;5346;48.766;8.674;2023-04-24T14:10:30;4.43;;;2.63;;
10596;SDS011;5346;48.766;8.674;2023-04-24T14:13:05;3.88;;;2.38;;
10596;SDS011;5346;48.766;8.674;2023-04-24T14:15:39;3.05;;;2.75;;
10596;SDS011;5346;48.766;8.674;2023-04-24T14:18:07;2.70;;;2.50;;
10596;SDS011;5346;48.766;8.674;2023-04-24T14:20:40;4.75;;;2.75;;
10596;SDS011;5346;48.766;8.674;2023-04-24T14:23:07;3.33;;;2.50;;
10596;SDS011;5346;48.766;8.674;2023-04-24T14:25:35;5.03;;;2.78;;
10596;SDS011;5346;48.766;8.674;2023-04-24T14:28:12;2.80;;;2.40;;
10596;SDS011;5346;48.766;8.674;2023-04-24T14:30:45;2.95;;;2.65;;
10596;SDS011;5346;48.766;8.674;2023-04-24T14:33:15;2.60;;;2.40;;
10596;SDS011;5346;48.766;8.674;2023-04-24T14:35:58;3.33;;;2.35;;
10596;SDS011;5346;48.766;8.674;2023-04-24T14:38:46;3.13;;;2.65;;
10596;SDS011;5346;48.766;8.674;2023-04-24T14:41:20;4.00;;;2.20;;
10596;SDS011;5346;48.766;8.674;2023-04-24T14:43:55;3.80;;;2.30;;
10596;SDS011;5346;48.766;8.674;2023-04-24T14:46:22;3.60;;;2.67;;
10596;SDS011;5346;48.766;8.674;2023-04-24T14:49:00;4.43;;;2.70;;
10596;SDS011;5346;48.766;8.674;2023-04-24T14:51:28;2.63;;;2.33;;
10596;SDS011;5346;48.766;8.674;2023-04-24T14:54:01;3.33;;;2.33;;
10596;SDS011;5346;48.766;8.674;2023-04-24T14:56:36;2.37;;;2.17;;
10596;SDS011;5346;48.766;8.674;2023-04-24T14:59:09;2.73;;;2.30;;
10596;SDS011;5346;48.766;8.674;2023-04-24T15:01:43;3.87;;;2.60;;
10596;SDS011;5346;48.766;8.674;2023-04-24T15:04:35;4.40;;;3.00;;
10596;SDS011;5346;48.766;8.674;2023-04-24T15:07:17;4.07;;;2.70;;
10596;SDS011;5346;48.766;8.674;2023-04-24T15:09:50;4.50;;;2.70;;
10596;SDS011;5346;48.766;8.674;2023-04-24T15:12:19;3.77;;;2.90;;
10596;SDS011;5346;48.766;8.674;2023-04-24T15:14:54;3.27;;;2.80;;
10596;SDS011;5346;48.766;8.674;2023-04-24T15:17:29;4.83;;;3.10;;
10596;SDS011;5346;48.766;8.674;2023-04-24T15:19:58;3.77;;;3.23;;
10596;SDS011;5346;48.766;8.674;2023-04-24T15:22:33;4.47;;;3.10;;
10596;SDS011;5346;48.766;8.674;2023-04-24T15:25:02;7.37;;;2.83;;
10596;SDS011;5346;48.766;8.674;2023-04-24T15:27:40;5.13;;;2.30;;
10596;SDS011;5346;48.766;8.674;2023-04-24T15:30:15;2.42;;;1.90;;
10596;SDS011;5346;48.766;8.674;2023-04-24T15:32:52;4.30;;;2.20;;
10596;SDS011;5346;48.766;8.674;2023-04-24T15:35:25;2.90;;;2.25;;
10596;SDS011;5346;48.766;8.674;2023-04-24T15:37:59;2.70;;;2.28;;
10596;SDS011;5346;48.766;8.674;2023-04-24T15:40:27;4.00;;;2.33;;
10596;SDS011;5346;48.766;8.674;2023-04-24T15:43:01;4.20;;;2.23;;
10596;SDS011;5346;48.766;8.674;2023-04-24T15:45:36;2.57;;;2.10;;
10596;SDS011;5346;48.766;8.674;2023-04-24T15:48:11;3.37;;;2.13;;
10596;SDS011;5346;48.766;8.674;2023-04-24T15:50:46;2.67;;;2.40;;
10596;SDS011;5346;48.766;8.674;2023-04-24T15:53:14;4.23;;;1.83;;